createdAt,value
2022-10-02T00:00:01.822Z,20.60
2022-10-02T00:02:49.272Z,20.60
2022-10-02T00:05:38.220Z,20.50
2022-10-02T00:08:24.064Z,20.50
2022-10-02T00:11:08.814Z,20.50
2022-10-02T00:13:47.145Z,20.50
2022-10-02T00:16:24.675Z,20.50
2022-10-02T00:18:55.246Z,20.40
2022-10-02T00:21:31.505Z,20.40
2022-10-02T00:24:01.612Z,20.30
2022-10-02T00:26:36.215Z,20.40
2022-10-02T00:29:31.351Z,20.30
2022-10-02T00:32:36.298Z,20.30
2022-10-02T00:35:28.215Z,20.20
2022-10-02T00:38:34.890Z,20.20
2022-10-02T00:41:13.791Z,20.20
2022-10-02T00:44:09.638Z,20.10
2022-10-02T00:46:52.565Z,20.10
2022-10-02T00:49:44.886Z,20.20
2022-10-02T00:52:27.515Z,20.20
2022-10-02T00:54:59.850Z,20.20
2022-10-02T00:57:33.354Z,20.20
2022-10-02T01:00:16.981Z,20.10
2022-10-02T01:02:58.365Z,20.00
2022-10-02T01:05:27.451Z,20.00
2022-10-02T01:07:56.042Z,20.00
2022-10-02T01:10:27.991Z,20.00
2022-10-02T01:12:56.831Z,20.00
2022-10-02T01:15:39.631Z,20.00
2022-10-02T01:18:07.676Z,20.00
2022-10-02T01:20:43.765Z,19.90
2022-10-02T01:23:21.862Z,19.90
2022-10-02T01:25:49.271Z,19.80
2022-10-02T01:28:16.776Z,19.70
2022-10-02T01:30:48.367Z,19.70
2022-10-02T01:33:15.980Z,19.70
2022-10-02T01:35:43.864Z,19.70
2022-10-02T01:38:14.608Z,19.70
2022-10-02T01:40:42.370Z,19.70
2022-10-02T01:43:14.179Z,19.80
2022-10-02T01:45:53.010Z,19.80
2022-10-02T01:48:43.760Z,19.80
2022-10-02T01:51:51.446Z,19.90
2022-10-02T01:54:33.754Z,19.90
2022-10-02T01:57:19.231Z,19.90
2022-10-02T02:00:02.150Z,19.90
2022-10-02T02:02:47.859Z,19.90
2022-10-02T02:05:40.200Z,19.80
2022-10-02T02:08:19.536Z,19.80
2022-10-02T02:11:08.489Z,19.80
2022-10-02T02:14:28.567Z,19.70
2022-10-02T02:17:05.914Z,19.70
2022-10-02T02:19:54.163Z,19.60
2022-10-02T02:22:29.991Z,19.70
2022-10-02T02:24:59.033Z,19.70
2022-10-02T02:27:31.381Z,19.70
2022-10-02T02:30:04.014Z,19.70
2022-10-02T02:32:40.457Z,19.60
2022-10-02T02:35:33.460Z,19.60
2022-10-02T02:38:10.340Z,19.50
2022-10-02T02:40:42.244Z,19.40
2022-10-02T02:43:20.378Z,19.40
2022-10-02T02:46:16.144Z,19.40
2022-10-02T02:48:50.294Z,19.40
2022-10-02T02:51:33.052Z,19.40
2022-10-02T02:54:15.454Z,19.40
2022-10-02T02:56:45.853Z,19.40
2022-10-02T02:59:14.878Z,19.40
2022-10-02T03:01:42.851Z,19.50
2022-10-02T03:04:14.327Z,19.50
2022-10-02T03:06:46.388Z,19.50
2022-10-02T03:09:15.664Z,19.50
2022-10-02T03:12:01.062Z,19.50
2022-10-02T03:14:52.182Z,19.50
2022-10-02T03:17:41.297Z,19.50
2022-10-02T03:20:27.181Z,19.50
2022-10-02T03:23:14.595Z,19.50
2022-10-02T03:26:16.955Z,19.50
2022-10-02T03:28:57.521Z,19.40
2022-10-02T03:31:28.203Z,19.50
2022-10-02T03:33:57.851Z,19.50
2022-10-02T03:36:25.508Z,19.40
2022-10-02T03:39:19.709Z,19.40
2022-10-02T03:41:43.999Z,19.40
2022-10-02T03:44:11.284Z,19.30
2022-10-02T03:46:38.982Z,19.30
2022-10-02T03:49:06.581Z,19.30
2022-10-02T03:51:33.910Z,19.20
2022-10-02T03:54:01.258Z,19.20
2022-10-02T03:56:44.417Z,19.30
2022-10-02T03:59:18.617Z,19.30
2022-10-02T04:01:50.959Z,19.30
2022-10-02T04:04:50.095Z,19.30
2022-10-02T04:07:26.176Z,19.20
2022-10-02T04:10:02.151Z,19.20
2022-10-02T04:12:41.056Z,19.20
2022-10-02T04:15:23.660Z,19.20
2022-10-02T04:17:58.798Z,19.20
2022-10-02T04:21:03.288Z,19.20
2022-10-02T04:23:35.800Z,19.10
2022-10-02T04:26:15.863Z,19.10
2022-10-02T04:28:48.460Z,19.00
2022-10-02T04:31:16.412Z,18.90
2022-10-02T04:33:43.741Z,18.90
2022-10-02T04:36:37.622Z,18.90
2022-10-02T04:39:30.164Z,18.90
2022-10-02T04:42:00.289Z,18.90
2022-10-02T04:44:51.328Z,18.90
2022-10-02T04:47:44.707Z,18.90
2022-10-02T04:50:11.981Z,18.90
2022-10-02T04:53:31.424Z,18.90
2022-10-02T04:56:13.829Z,18.80
2022-10-02T04:58:56.212Z,18.80
2022-10-02T05:01:45.388Z,18.70
2022-10-02T05:04:31.490Z,18.70
2022-10-02T05:07:23.206Z,18.70
2022-10-02T05:10:33.628Z,18.70
2022-10-02T05:13:23.959Z,18.70
2022-10-02T05:16:10.046Z,18.70
2022-10-02T05:19:02.259Z,18.70
2022-10-02T05:21:40.577Z,18.70
2022-10-02T05:24:29.480Z,18.80
2022-10-02T05:27:15.484Z,18.80
2022-10-02T05:30:01.318Z,18.90
2022-10-02T05:32:49.079Z,19.00
2022-10-02T05:35:35.191Z,19.10
2022-10-02T05:38:08.234Z,19.20
2022-10-02T05:40:50.617Z,19.30
2022-10-02T05:43:38.072Z,19.40
2022-10-02T05:46:35.666Z,19.50
2022-10-02T05:49:08.663Z,19.60
2022-10-02T05:52:05.177Z,19.70
2022-10-02T05:55:00.304Z,19.90
2022-10-02T05:57:41.659Z,20.10
2022-10-02T06:00:28.091Z,20.20
2022-10-02T06:03:10.671Z,20.40
2022-10-02T06:06:10.535Z,20.50
2022-10-02T06:08:51.686Z,20.60
2022-10-02T06:11:29.776Z,20.80
2022-10-02T06:14:00.035Z,20.90
2022-10-02T06:16:38.251Z,21.00
2022-10-02T06:19:28.912Z,21.10
2022-10-02T06:22:19.664Z,21.30
2022-10-02T06:25:02.994Z,21.40
2022-10-02T06:27:53.000Z,21.50
2022-10-02T06:30:22.416Z,21.60
2022-10-02T06:33:26.570Z,21.70
2022-10-02T06:36:31.937Z,21.70
2022-10-02T06:39:33.658Z,21.60
2022-10-02T06:42:09.777Z,21.50
2022-10-02T06:44:49.569Z,21.60
2022-10-02T06:47:49.800Z,21.50
2022-10-02T06:50:54.701Z,21.50
2022-10-02T06:53:44.480Z,21.60
2022-10-02T06:56:40.766Z,21.60
2022-10-02T06:59:20.073Z,21.50
2022-10-02T07:02:43.884Z,21.60
2022-10-02T07:05:33.054Z,21.60
2022-10-02T07:08:18.800Z,21.60
2022-10-02T07:11:04.381Z,21.80
2022-10-02T07:13:44.108Z,21.80
2022-10-02T07:16:35.366Z,21.80
2022-10-02T07:19:02.856Z,21.90
2022-10-02T07:21:41.833Z,22.00
2022-10-02T07:24:57.321Z,22.10
2022-10-02T07:27:35.192Z,22.10
2022-10-02T07:30:09.236Z,22.30
2022-10-02T07:32:59.398Z,22.30
2022-10-02T07:35:33.011Z,22.30
2022-10-02T07:38:24.264Z,22.20
2022-10-02T07:40:59.250Z,22.30
2022-10-02T07:43:42.390Z,22.40
2022-10-02T07:46:37.183Z,22.40
2022-10-02T07:49:16.597Z,22.60
2022-10-02T07:52:08.684Z,22.70
2022-10-02T07:54:48.522Z,22.70
2022-10-02T07:57:31.098Z,22.80
2022-10-02T08:00:16.187Z,23.00
2022-10-02T08:03:07.166Z,23.10
2022-10-02T08:05:41.818Z,23.20
2022-10-02T08:08:17.576Z,23.30
2022-10-02T08:10:50.267Z,23.30
2022-10-02T08:13:26.303Z,23.40
2022-10-02T08:15:56.347Z,23.50
2022-10-02T08:18:57.745Z,23.60
2022-10-02T08:21:26.423Z,23.80
2022-10-02T08:24:03.569Z,23.90
2022-10-02T08:26:37.390Z,23.90
2022-10-02T08:29:12.262Z,24.00
2022-10-02T08:31:39.674Z,24.10
2022-10-02T08:34:21.222Z,24.30
2022-10-02T08:37:03.735Z,24.20
2022-10-02T08:40:04.707Z,24.30
2022-10-02T08:42:59.118Z,24.50
2022-10-02T08:46:03.235Z,24.70
2022-10-02T08:48:55.064Z,24.70
2022-10-02T08:51:40.991Z,24.70
2022-10-02T08:54:42.202Z,24.70
2022-10-02T08:57:27.319Z,24.90
2022-10-02T09:00:09.473Z,25.00
2022-10-02T09:02:45.514Z,25.20
2022-10-02T09:05:27.736Z,25.30
2022-10-02T09:08:49.360Z,25.30
2022-10-02T09:11:53.944Z,25.40
2022-10-02T09:14:50.656Z,25.50
2022-10-02T09:17:24.298Z,25.60
2022-10-02T09:20:06.625Z,25.60
2022-10-02T09:22:44.654Z,25.40
2022-10-02T09:25:36.239Z,25.50
2022-10-02T09:28:34.365Z,25.30
2022-10-02T09:31:15.149Z,25.40
2022-10-02T09:34:12.249Z,25.40
2022-10-02T09:36:57.492Z,25.60
2022-10-02T09:39:30.236Z,25.50
2022-10-02T09:42:21.079Z,25.60
2022-10-02T09:45:01.499Z,25.70
2022-10-02T09:47:38.354Z,25.70
2022-10-02T09:50:40.568Z,25.60
2022-10-02T09:53:35.624Z,25.50
2022-10-02T09:56:18.139Z,25.70
2022-10-02T09:59:03.050Z,25.80
2022-10-02T10:01:56.650Z,25.90
2022-10-02T10:05:05.142Z,25.90
2022-10-02T10:07:44.812Z,26.00
2022-10-02T10:10:12.564Z,25.90
2022-10-02T10:13:22.819Z,25.80
2022-10-02T10:16:11.531Z,25.80
2022-10-02T10:19:03.788Z,26.00
2022-10-02T10:22:08.357Z,26.20
2022-10-02T10:25:10.852Z,26.30
2022-10-02T10:27:47.525Z,26.30
2022-10-02T10:30:18.792Z,26.30
2022-10-02T10:33:30.337Z,26.50
2022-10-02T10:36:32.469Z,26.80
2022-10-02T10:39:31.267Z,26.70
2022-10-02T10:42:17.371Z,26.90
2022-10-02T10:45:27.607Z,26.90
2022-10-02T10:48:27.680Z,26.90
2022-10-02T10:51:30.732Z,27.20
2022-10-02T10:54:16.349Z,27.80
2022-10-02T10:57:08.892Z,28.40
2022-10-02T10:59:58.898Z,29.40
2022-10-02T11:02:54.897Z,30.10
2022-10-02T11:06:02.891Z,30.70
2022-10-02T11:08:45.634Z,30.70
2022-10-02T11:11:29.721Z,30.90
2022-10-02T11:14:23.897Z,31.00
2022-10-02T11:17:09.562Z,31.30
2022-10-02T11:20:02.264Z,31.90
2022-10-02T11:22:49.461Z,31.90
2022-10-02T11:25:52.967Z,32.20
2022-10-02T11:28:38.939Z,32.00
2022-10-02T11:31:24.310Z,31.60
2022-10-02T11:34:28.953Z,31.30
2022-10-02T11:37:09.798Z,31.40
2022-10-02T11:40:13.048Z,31.60
2022-10-02T11:43:09.795Z,31.90
2022-10-02T11:45:44.467Z,32.10
2022-10-02T11:48:17.290Z,32.30
2022-10-02T11:50:53.897Z,32.00
2022-10-02T11:53:48.808Z,32.70
2022-10-02T11:56:22.844Z,33.00
2022-10-02T11:59:04.129Z,32.00
2022-10-02T12:02:23.765Z,31.80
2022-10-02T12:05:24.520Z,32.30
2022-10-02T12:08:17.611Z,32.70
2022-10-02T12:11:09.372Z,32.10
2022-10-02T12:13:50.100Z,32.70
2022-10-02T12:16:45.107Z,32.50
2022-10-02T12:19:21.196Z,32.60
2022-10-02T12:22:13.597Z,32.70
2022-10-02T12:24:59.540Z,33.20
2022-10-02T12:27:43.098Z,33.30
2022-10-02T12:30:19.658Z,33.40
2022-10-02T12:33:16.169Z,32.90
2022-10-02T12:35:53.387Z,32.80
2022-10-02T12:38:33.377Z,32.90
2022-10-02T12:41:30.720Z,32.60
2022-10-02T12:44:18.351Z,32.20
2022-10-02T12:47:05.805Z,32.00
2022-10-02T12:49:56.958Z,32.20
2022-10-02T12:52:43.353Z,32.60
2022-10-02T12:55:19.524Z,32.90
2022-10-02T12:58:14.548Z,33.00
2022-10-02T13:01:11.849Z,32.60
2022-10-02T13:03:48.193Z,32.90
2022-10-02T13:06:53.321Z,32.90
2022-10-02T13:09:35.434Z,33.20
2022-10-02T13:12:18.274Z,32.80
2022-10-02T13:15:11.884Z,32.40
2022-10-02T13:17:56.063Z,32.10
2022-10-02T13:20:39.123Z,32.70
2022-10-02T13:23:25.117Z,32.80
2022-10-02T13:25:57.451Z,32.10
2022-10-02T13:28:50.977Z,30.70
2022-10-02T13:31:38.662Z,29.80
2022-10-02T13:34:25.820Z,28.60
2022-10-02T13:37:17.639Z,28.10
2022-10-02T13:39:58.359Z,27.90
2022-10-02T13:42:42.398Z,27.60
2022-10-02T13:45:51.121Z,27.40
2022-10-02T13:48:55.243Z,27.10
2022-10-02T13:51:27.172Z,27.00
2022-10-02T13:54:09.184Z,26.90
2022-10-02T13:56:43.499Z,26.70
2022-10-02T13:59:48.760Z,26.60
2022-10-02T14:02:27.449Z,26.50
2022-10-02T14:05:20.546Z,26.50
2022-10-02T14:08:23.395Z,26.50
2022-10-02T14:10:54.342Z,26.40
2022-10-02T14:13:40.011Z,26.30
2022-10-02T14:16:20.127Z,26.30
2022-10-02T14:19:03.319Z,26.20
2022-10-02T14:21:59.028Z,26.20
2022-10-02T14:24:50.773Z,26.20
2022-10-02T14:27:21.075Z,26.20
2022-10-02T14:30:07.945Z,26.10
2022-10-02T14:33:06.238Z,26.00
2022-10-02T14:35:59.742Z,25.90
2022-10-02T14:38:52.642Z,25.90
2022-10-02T14:42:10.476Z,25.90
2022-10-02T14:44:57.024Z,25.90
2022-10-02T14:47:50.635Z,25.90
2022-10-02T14:50:40.962Z,25.80
2022-10-02T14:53:13.913Z,25.80
2022-10-02T14:56:10.053Z,25.90
2022-10-02T14:59:18.601Z,25.90
2022-10-02T15:02:08.940Z,25.90
2022-10-02T15:04:48.565Z,25.80
2022-10-02T15:07:26.262Z,25.80
2022-10-02T15:10:16.526Z,25.90
2022-10-02T15:12:59.634Z,25.80
2022-10-02T15:16:15.883Z,26.00
2022-10-02T15:19:16.698Z,26.10
2022-10-02T15:21:54.184Z,26.10
2022-10-02T15:24:43.109Z,26.10
2022-10-02T15:27:24.293Z,26.10
2022-10-02T15:30:22.243Z,25.80
2022-10-02T15:33:11.127Z,25.80
2022-10-02T15:35:49.556Z,25.80
2022-10-02T15:38:49.860Z,25.80
2022-10-02T15:41:43.684Z,25.70
2022-10-02T15:44:40.370Z,25.50
2022-10-02T15:47:16.357Z,25.30
2022-10-02T15:49:52.547Z,25.40
2022-10-02T15:52:43.792Z,25.40
2022-10-02T15:55:25.296Z,25.50
2022-10-02T15:58:20.001Z,25.60
2022-10-02T16:01:01.964Z,25.60
2022-10-02T16:03:41.171Z,25.50
2022-10-02T16:06:38.193Z,25.30
2022-10-02T16:09:30.871Z,25.20
2022-10-02T16:12:13.100Z,25.00
2022-10-02T16:14:49.910Z,24.90
2022-10-02T16:17:31.613Z,24.70
2022-10-02T16:19:58.808Z,24.60
2022-10-02T16:22:52.532Z,24.40
2022-10-02T16:25:31.441Z,24.40
2022-10-02T16:28:09.355Z,24.20
2022-10-02T16:31:01.606Z,24.20
2022-10-02T16:33:47.799Z,24.10
2022-10-02T16:36:41.015Z,24.00
2022-10-02T16:39:34.753Z,24.00
2022-10-02T16:42:13.613Z,23.90
2022-10-02T16:45:03.102Z,23.80
2022-10-02T16:48:14.495Z,23.80
2022-10-02T16:51:24.924Z,23.70
2022-10-02T16:54:24.668Z,23.60
2022-10-02T16:57:17.892Z,23.50
2022-10-02T16:59:54.395Z,23.50
2022-10-02T17:02:44.704Z,23.40
2022-10-02T17:05:37.833Z,23.40
2022-10-02T17:08:09.675Z,23.30
2022-10-02T17:10:36.741Z,23.30
2022-10-02T17:13:10.073Z,23.20
2022-10-02T17:15:40.033Z,23.20
2022-10-02T17:18:49.511Z,23.20
2022-10-02T17:21:23.312Z,23.20
2022-10-02T17:24:18.225Z,23.10
2022-10-02T17:26:56.121Z,23.10
2022-10-02T17:29:39.192Z,23.00
2022-10-02T17:32:09.467Z,23.00
2022-10-02T17:34:49.978Z,23.00
2022-10-02T17:37:17.548Z,22.90
2022-10-02T17:40:13.811Z,22.90
2022-10-02T17:43:04.131Z,22.90
2022-10-02T17:45:36.863Z,23.00
2022-10-02T17:48:28.313Z,22.90
2022-10-02T17:51:14.952Z,22.90
2022-10-02T17:54:42.707Z,22.90
2022-10-02T17:57:23.687Z,22.90
2022-10-02T18:00:15.033Z,22.90
2022-10-02T18:02:51.073Z,22.90
2022-10-02T18:05:49.324Z,22.80
2022-10-02T18:08:53.722Z,22.80
2022-10-02T18:11:26.460Z,22.80
2022-10-02T18:14:10.640Z,22.80
2022-10-02T18:16:47.946Z,22.80
2022-10-02T18:19:22.972Z,22.80
2022-10-02T18:22:44.502Z,22.70
2022-10-02T18:25:38.169Z,22.70
2022-10-02T18:28:43.718Z,22.70
2022-10-02T18:31:55.312Z,22.60
2022-10-02T18:34:43.820Z,22.70
2022-10-02T18:37:48.585Z,22.60
2022-10-02T18:40:33.819Z,22.60
2022-10-02T18:43:22.091Z,22.60
2022-10-02T18:45:56.389Z,22.60
2022-10-02T18:48:31.480Z,22.60
2022-10-02T18:51:17.182Z,22.60
2022-10-02T18:54:03.417Z,22.50
2022-10-02T18:57:08.081Z,22.50
2022-10-02T19:00:00.410Z,22.50
2022-10-02T19:02:55.595Z,22.50
2022-10-02T19:05:35.552Z,22.50
2022-10-02T19:08:06.383Z,22.50
2022-10-02T19:10:33.584Z,22.50
2022-10-02T19:13:02.012Z,22.60
2022-10-02T19:15:32.196Z,22.60
2022-10-02T19:18:02.233Z,22.60
2022-10-02T19:20:44.631Z,22.60
2022-10-02T19:23:26.877Z,22.60
2022-10-02T19:25:57.028Z,22.60
2022-10-02T19:28:28.801Z,22.60
2022-10-02T19:31:01.291Z,22.60
2022-10-02T19:33:57.315Z,22.60
2022-10-02T19:36:28.478Z,22.50
2022-10-02T19:39:03.344Z,22.50
2022-10-02T19:41:36.087Z,22.50
2022-10-02T19:44:09.640Z,22.40
2022-10-02T19:46:43.524Z,22.40
2022-10-02T19:49:26.031Z,22.40
2022-10-02T19:51:55.087Z,22.30
2022-10-02T19:54:37.264Z,22.30
2022-10-02T19:57:17.438Z,22.30
2022-10-02T19:59:53.598Z,22.30
2022-10-02T20:02:34.889Z,22.20
2022-10-02T20:05:06.935Z,22.20
2022-10-02T20:07:38.287Z,22.10
2022-10-02T20:10:11.468Z,22.10
2022-10-02T20:12:42.570Z,22.00
2022-10-02T20:15:40.112Z,22.00
2022-10-02T20:18:08.539Z,22.00
2022-10-02T20:20:38.091Z,22.00
2022-10-02T20:23:22.075Z,21.90
2022-10-02T20:25:53.643Z,21.90
2022-10-02T20:28:33.593Z,21.80
2022-10-02T20:31:41.921Z,21.80
2022-10-02T20:34:39.479Z,21.70
2022-10-02T20:37:12.168Z,21.70
2022-10-02T20:39:56.718Z,21.70
2022-10-02T20:42:37.595Z,21.70
2022-10-02T20:45:05.993Z,21.70
2022-10-02T20:48:15.916Z,21.70
2022-10-02T20:51:13.567Z,21.70
2022-10-02T20:54:00.142Z,21.70
2022-10-02T20:56:47.658Z,21.60
2022-10-02T20:59:27.108Z,21.60
2022-10-02T21:02:25.494Z,21.50
2022-10-02T21:04:52.687Z,21.50
2022-10-02T21:07:41.559Z,21.50
2022-10-02T21:10:24.736Z,21.40
2022-10-02T21:13:01.013Z,21.40
2022-10-02T21:15:42.160Z,21.40
2022-10-02T21:18:35.047Z,21.30
2022-10-02T21:21:27.273Z,21.30
2022-10-02T21:23:58.011Z,21.20
2022-10-02T21:26:33.175Z,21.30
2022-10-02T21:29:18.980Z,21.20
2022-10-02T21:32:04.735Z,21.20
2022-10-02T21:35:04.042Z,21.10
2022-10-02T21:37:53.241Z,21.10
2022-10-02T21:40:23.432Z,21.10
2022-10-02T21:43:35.854Z,21.10
2022-10-02T21:46:03.103Z,21.10
2022-10-02T21:48:53.904Z,21.00
2022-10-02T21:51:54.451Z,21.00
2022-10-02T21:54:59.524Z,20.90
2022-10-02T21:57:45.536Z,20.90
2022-10-02T22:00:23.439Z,20.90
2022-10-02T22:03:22.135Z,20.80
2022-10-02T22:06:01.917Z,20.80
2022-10-02T22:08:50.652Z,20.80
2022-10-02T22:11:43.414Z,20.80
2022-10-02T22:14:23.331Z,20.70
2022-10-02T22:17:04.639Z,20.70
2022-10-02T22:19:44.898Z,20.70
2022-10-02T22:22:36.584Z,20.70
2022-10-02T22:25:19.483Z,20.60
2022-10-02T22:28:11.194Z,20.60
2022-10-02T22:31:19.094Z,20.60
2022-10-02T22:34:04.729Z,20.60
2022-10-02T22:36:46.446Z,20.60
2022-10-02T22:39:13.728Z,20.60
2022-10-02T22:41:55.180Z,20.50
2022-10-02T22:44:54.032Z,20.50
2022-10-02T22:47:37.930Z,20.40
2022-10-02T22:50:08.472Z,20.40
2022-10-02T22:52:52.802Z,20.40
2022-10-02T22:55:26.379Z,20.40
2022-10-02T22:57:56.354Z,20.40
2022-10-02T23:00:27.882Z,20.40
2022-10-02T23:02:57.310Z,20.30
2022-10-02T23:05:36.797Z,20.30
2022-10-02T23:08:34.825Z,20.30
2022-10-02T23:11:46.279Z,20.30
2022-10-02T23:14:25.153Z,20.20
2022-10-02T23:17:05.011Z,20.20
2022-10-02T23:19:47.700Z,20.20
2022-10-02T23:22:14.979Z,20.20
2022-10-02T23:25:01.292Z,20.10
2022-10-02T23:28:09.021Z,20.20
2022-10-02T23:30:42.309Z,20.20
2022-10-02T23:33:29.577Z,20.10
2022-10-02T23:36:05.361Z,20.10
2022-10-02T23:38:51.709Z,20.10
2022-10-02T23:41:47.141Z,20.00
2022-10-02T23:44:37.096Z,20.00
2022-10-02T23:47:23.606Z,20.10
2022-10-02T23:49:56.520Z,20.00
2022-10-02T23:52:59.793Z,20.00
2022-10-02T23:55:39.736Z,20.00
2022-10-02T23:58:34.293Z,19.90
